createdAt,value
2022-11-27T00:10:21.188Z,3.6
2022-11-27T00:22:21.193Z,3.2
2022-11-27T00:34:21.194Z,2.9
2022-11-27T00:46:26.646Z,2.6
2022-11-27T00:58:21.209Z,2.4
2022-11-27T01:10:21.208Z,2.4
2022-11-27T01:22:21.210Z,2.4
2022-11-27T01:34:21.314Z,2.4
2022-11-27T01:46:21.360Z,2.7
2022-11-27T01:58:21.517Z,2.8
2022-11-27T02:10:21.192Z,2.8
2022-11-27T02:22:21.193Z,2.8
2022-11-27T02:34:21.223Z,2.7
2022-11-27T02:46:21.228Z,2.6
2022-11-27T02:58:21.306Z,2.7
2022-11-27T03:10:21.286Z,2.8
2022-11-27T03:22:21.214Z,2.5
2022-11-27T03:34:21.210Z,2.4
2022-11-27T03:46:21.366Z,2.1
2022-11-27T03:58:21.290Z,2.1
2022-11-27T04:10:21.192Z,2.3
2022-11-27T04:22:21.196Z,2.9
2022-11-27T04:34:21.201Z,3.0
2022-11-27T04:46:21.351Z,3.2
2022-11-27T04:58:21.193Z,3.2
2022-11-27T05:10:21.314Z,3.3
2022-11-27T05:22:21.191Z,3.4
2022-11-27T05:34:21.307Z,3.4
2022-11-27T05:46:21.318Z,3.5
2022-11-27T05:58:21.312Z,3.4
2022-11-27T06:10:21.828Z,3.4
2022-11-27T06:22:21.520Z,3.4
2022-11-27T06:34:21.197Z,3.5
2022-11-27T06:46:21.292Z,3.4
2022-11-27T06:58:21.270Z,3.5
2022-11-27T07:10:21.301Z,3.6
2022-11-27T07:22:21.246Z,3.7
2022-11-27T07:34:21.933Z,3.7
2022-11-27T07:46:21.630Z,3.8
2022-11-27T07:58:21.195Z,3.9
2022-11-27T08:10:21.205Z,4.0
2022-11-27T08:22:21.299Z,4.1
2022-11-27T08:34:21.296Z,4.3
2022-11-27T08:46:21.356Z,4.6
2022-11-27T08:58:21.265Z,4.7
2022-11-27T09:10:21.190Z,5.1
2022-11-27T09:22:21.194Z,5.5
2022-11-27T09:34:21.261Z,5.6
2022-11-27T09:46:21.293Z,5.6
2022-11-27T09:58:21.203Z,5.8
2022-11-27T10:10:21.270Z,5.9
2022-11-27T10:22:21.509Z,6.2
2022-11-27T10:34:21.203Z,6.2
2022-11-27T10:46:21.280Z,6.6
2022-11-27T10:58:21.194Z,6.9
2022-11-27T11:10:21.193Z,7.3
2022-11-27T11:22:21.192Z,7.5
2022-11-27T11:34:21.318Z,7.3
2022-11-27T11:46:21.307Z,7.1
2022-11-27T11:58:21.330Z,7.0
2022-11-27T12:10:21.206Z,6.8
2022-11-27T12:22:21.308Z,6.8
2022-11-27T12:34:21.304Z,6.8
2022-11-27T12:46:21.334Z,6.8
2022-11-27T12:58:21.306Z,6.8
2022-11-27T13:10:21.193Z,6.8
2022-11-27T13:22:21.188Z,6.6
2022-11-27T13:34:21.196Z,6.5
2022-11-27T13:46:21.280Z,6.4
2022-11-27T13:58:21.288Z,6.5
2022-11-27T14:10:21.307Z,6.7
2022-11-27T14:22:21.261Z,6.6
2022-11-27T14:34:24.655Z,6.6
2022-11-27T14:46:21.315Z,6.6
2022-11-27T14:58:21.209Z,6.5
2022-11-27T15:10:21.228Z,6.4
2022-11-27T15:22:21.189Z,6.1
2022-11-27T15:34:21.208Z,6.0
2022-11-27T15:46:21.317Z,5.8
2022-11-27T15:58:21.286Z,5.7
2022-11-27T16:10:21.189Z,5.7
2022-11-27T16:22:21.291Z,5.6
2022-11-27T16:34:21.255Z,5.5
2022-11-27T16:46:21.388Z,5.2
2022-11-27T16:58:21.205Z,5.1
2022-11-27T17:10:21.317Z,5.0
2022-11-27T17:22:21.230Z,5.1
2022-11-27T17:34:21.301Z,5.2
2022-11-27T17:46:21.354Z,5.2
2022-11-27T17:58:21.189Z,5.2
2022-11-27T18:10:21.224Z,5.1
2022-11-27T18:22:21.299Z,5.1
2022-11-27T18:34:21.202Z,5.1
2022-11-27T18:46:21.370Z,5.1
2022-11-27T18:58:21.303Z,5.2
2022-11-27T19:10:21.292Z,5.3
2022-11-27T19:22:21.191Z,5.5
2022-11-27T19:34:21.305Z,5.6
2022-11-27T19:46:21.227Z,5.8
2022-11-27T19:58:21.303Z,5.8
2022-11-27T20:10:21.189Z,5.7
2022-11-27T20:22:21.259Z,5.7
2022-11-27T20:34:21.270Z,5.7
2022-11-27T20:46:21.327Z,5.7
2022-11-27T20:58:21.247Z,5.6
2022-11-27T21:10:21.261Z,5.6
2022-11-27T21:22:21.620Z,5.2
2022-11-27T21:34:21.318Z,5.0
2022-11-27T21:46:21.291Z,4.9
2022-11-27T21:58:21.294Z,4.8
2022-11-27T22:10:21.252Z,4.8
2022-11-27T22:22:21.319Z,5.2
2022-11-27T22:34:21.294Z,5.2
2022-11-27T22:46:21.258Z,5.0
2022-11-27T22:58:21.293Z,5.1
2022-11-27T23:10:21.309Z,5.0
2022-11-27T23:22:21.290Z,4.9
2022-11-27T23:34:21.258Z,4.9
2022-11-27T23:46:21.333Z,4.8
2022-11-27T23:58:21.192Z,4.9
